createdAt,value
2023-03-22T00:02:01.956Z,61.08
2023-03-22T00:04:28.301Z,61.34
2023-03-22T00:06:54.699Z,61.06
2023-03-22T00:09:21.378Z,60.90
2023-03-22T00:11:50.790Z,60.90
2023-03-22T00:14:18.217Z,60.78
2023-03-22T00:16:46.034Z,60.86
2023-03-22T00:19:12.405Z,60.89
2023-03-22T00:21:38.752Z,60.86
2023-03-22T00:24:05.318Z,60.90
2023-03-22T00:26:31.653Z,60.73
2023-03-22T00:28:57.998Z,60.83
2023-03-22T00:31:24.400Z,60.71
2023-03-22T00:33:50.920Z,60.76
2023-03-22T00:36:17.269Z,60.67
2023-03-22T00:38:44.542Z,60.69
2023-03-22T00:41:16.451Z,60.64
2023-03-22T00:43:43.559Z,60.86
2023-03-22T00:46:11.287Z,60.72
2023-03-22T00:48:37.989Z,60.74
2023-03-22T00:51:04.591Z,60.62
2023-03-22T00:53:32.871Z,60.67
2023-03-22T00:55:59.955Z,60.72
2023-03-22T00:58:26.324Z,60.65
2023-03-22T01:00:52.695Z,60.80
2023-03-22T01:03:19.214Z,60.72
2023-03-22T01:05:46.196Z,60.70
2023-03-22T01:08:12.806Z,60.60
2023-03-22T01:10:40.408Z,60.59
2023-03-22T01:13:08.013Z,60.52
2023-03-22T01:15:34.544Z,60.56
2023-03-22T01:18:01.597Z,60.41
2023-03-22T01:20:28.360Z,60.39
2023-03-22T01:22:54.864Z,60.36
2023-03-22T01:25:21.481Z,60.30
2023-03-22T01:27:47.880Z,60.17
2023-03-22T01:30:14.360Z,60.35
2023-03-22T01:32:40.916Z,60.17
2023-03-22T01:35:07.733Z,60.45
2023-03-22T01:37:34.248Z,60.57
2023-03-22T01:40:00.959Z,60.63
2023-03-22T01:42:27.910Z,60.61
2023-03-22T01:45:12.910Z,60.62
2023-03-22T01:47:53.280Z,60.57
2023-03-22T01:50:20.641Z,60.69
2023-03-22T01:52:48.323Z,60.88
2023-03-22T01:55:18.218Z,60.88
2023-03-22T01:57:45.462Z,61.18
2023-03-22T02:00:18.995Z,61.29
2023-03-22T02:02:48.903Z,61.34
2023-03-22T02:05:15.989Z,61.46
2023-03-22T02:07:44.123Z,61.49
2023-03-22T02:10:22.248Z,61.41
2023-03-22T02:13:27.180Z,61.34
2023-03-22T02:16:36.613Z,61.28
2023-03-22T02:19:29.321Z,61.37
2023-03-22T02:22:01.899Z,61.18
2023-03-22T02:24:34.798Z,61.28
2023-03-22T02:27:34.143Z,61.29
2023-03-22T02:30:18.246Z,61.08
2023-03-22T02:33:02.409Z,61.14
2023-03-22T02:35:53.743Z,60.98
2023-03-22T02:38:33.130Z,61.01
2023-03-22T02:41:14.157Z,60.92
2023-03-22T02:44:02.592Z,60.69
2023-03-22T02:46:46.862Z,60.67
2023-03-22T02:49:13.209Z,60.88
2023-03-22T02:51:48.625Z,60.94
2023-03-22T02:54:28.670Z,60.96
2023-03-22T02:57:10.701Z,61.03
2023-03-22T02:59:39.874Z,61.24
2023-03-22T03:02:10.637Z,61.23
2023-03-22T03:04:44.448Z,61.34
2023-03-22T03:07:14.259Z,61.40
2023-03-22T03:09:42.790Z,61.53
2023-03-22T03:12:23.996Z,61.38
2023-03-22T03:14:50.603Z,61.17
2023-03-22T03:17:55.925Z,61.10
2023-03-22T03:20:44.429Z,61.11
2023-03-22T03:23:40.121Z,61.07
2023-03-22T03:26:48.559Z,61.20
2023-03-22T03:29:25.109Z,61.06
2023-03-22T03:32:08.599Z,61.21
2023-03-22T03:34:42.090Z,61.20
2023-03-22T03:37:17.430Z,61.03
2023-03-22T03:39:55.611Z,61.18
2023-03-22T03:42:26.188Z,61.24
2023-03-22T03:44:52.871Z,61.15
2023-03-22T03:47:20.867Z,60.78
2023-03-22T03:49:47.203Z,61.07
2023-03-22T03:52:14.032Z,61.15
2023-03-22T03:54:40.960Z,61.08
2023-03-22T03:57:07.277Z,61.13
2023-03-22T03:59:33.627Z,61.00
2023-03-22T04:02:00.406Z,61.04
2023-03-22T04:04:28.380Z,61.20
2023-03-22T04:07:03.536Z,61.08
2023-03-22T04:09:32.794Z,60.94
2023-03-22T04:11:59.974Z,61.10
2023-03-22T04:14:27.332Z,61.09
2023-03-22T04:16:53.811Z,61.06
2023-03-22T04:19:20.904Z,61.01
2023-03-22T04:21:47.563Z,60.96
2023-03-22T04:24:14.689Z,60.83
2023-03-22T04:26:41.390Z,60.90
2023-03-22T04:29:07.723Z,60.69
2023-03-22T04:31:35.622Z,60.72
2023-03-22T04:34:05.813Z,60.61
2023-03-22T04:36:36.284Z,60.47
2023-03-22T04:39:06.022Z,60.46
2023-03-22T04:41:33.509Z,60.49
2023-03-22T04:44:03.348Z,60.62
2023-03-22T04:46:35.321Z,60.43
2023-03-22T04:49:01.805Z,60.42
2023-03-22T04:51:28.244Z,60.42
2023-03-22T04:53:54.756Z,60.44
2023-03-22T04:56:21.643Z,60.42
2023-03-22T04:58:48.149Z,60.41
2023-03-22T05:01:16.210Z,60.54
2023-03-22T05:03:47.197Z,60.59
2023-03-22T05:06:14.072Z,60.69
2023-03-22T05:08:40.493Z,60.71
2023-03-22T05:11:14.262Z,60.75
2023-03-22T05:13:40.638Z,61.08
2023-03-22T05:16:07.482Z,61.25
2023-03-22T05:18:34.106Z,61.39
2023-03-22T05:21:03.828Z,61.35
2023-03-22T05:23:30.254Z,61.59
2023-03-22T05:25:58.210Z,61.60
2023-03-22T05:28:27.103Z,61.37
2023-03-22T05:30:56.566Z,61.97
2023-03-22T05:33:23.502Z,61.94
2023-03-22T05:35:50.533Z,62.15
2023-03-22T05:38:16.932Z,62.10
2023-03-22T05:40:44.304Z,62.28
2023-03-22T05:43:11.190Z,62.25
2023-03-22T05:45:37.807Z,62.41
2023-03-22T05:48:04.816Z,62.41
2023-03-22T05:50:31.748Z,62.48
2023-03-22T05:52:58.944Z,62.58
2023-03-22T05:55:26.209Z,62.67
2023-03-22T05:57:54.578Z,62.85
2023-03-22T06:00:21.835Z,62.90
2023-03-22T06:02:49.269Z,62.96
2023-03-22T06:05:17.440Z,63.00
2023-03-22T06:07:44.802Z,63.17
2023-03-22T06:10:12.941Z,63.21
2023-03-22T06:12:39.348Z,63.50
2023-03-22T06:15:07.389Z,63.05
2023-03-22T06:17:33.925Z,62.92
2023-03-22T06:20:00.351Z,62.92
2023-03-22T06:22:26.853Z,62.86
2023-03-22T06:24:53.255Z,62.50
2023-03-22T06:27:19.668Z,62.63
2023-03-22T06:29:50.675Z,62.41
2023-03-22T06:32:17.065Z,62.15
2023-03-22T06:34:43.913Z,62.13
2023-03-22T06:37:10.362Z,61.98
2023-03-22T06:39:36.682Z,61.82
2023-03-22T06:42:03.085Z,61.69
2023-03-22T06:44:29.636Z,61.57
2023-03-22T06:46:56.075Z,61.54
2023-03-22T06:49:22.729Z,61.40
2023-03-22T06:51:49.228Z,61.66
2023-03-22T06:54:16.651Z,61.28
2023-03-22T06:56:43.213Z,61.52
2023-03-22T06:59:09.656Z,61.45
2023-03-22T07:01:36.259Z,61.26
2023-03-22T07:04:02.654Z,61.39
2023-03-22T07:06:29.301Z,61.31
2023-03-22T07:08:55.788Z,61.04
2023-03-22T07:11:22.201Z,61.14
2023-03-22T07:13:48.940Z,61.07
2023-03-22T07:16:15.370Z,60.70
2023-03-22T07:18:41.709Z,60.62
2023-03-22T07:21:08.075Z,60.34
2023-03-22T07:23:34.414Z,60.24
2023-03-22T07:26:01.149Z,60.15
2023-03-22T07:28:27.968Z,60.08
2023-03-22T07:31:05.943Z,60.20
2023-03-22T07:33:32.437Z,60.42
2023-03-22T07:35:58.916Z,60.85
2023-03-22T07:38:25.386Z,60.78
2023-03-22T07:40:54.609Z,60.67
2023-03-22T07:43:22.071Z,60.46
2023-03-22T07:45:50.419Z,60.45
2023-03-22T07:48:18.031Z,60.31
2023-03-22T07:50:44.493Z,59.96
2023-03-22T07:53:11.612Z,60.21
2023-03-22T07:55:38.849Z,60.18
2023-03-22T07:58:06.210Z,60.38
2023-03-22T08:00:32.769Z,60.34
2023-03-22T08:02:59.264Z,60.23
2023-03-22T08:05:25.764Z,60.68
2023-03-22T08:07:52.630Z,61.06
2023-03-22T08:10:19.363Z,60.07
2023-03-22T08:12:46.094Z,59.05
2023-03-22T08:15:12.878Z,59.14
2023-03-22T08:17:39.385Z,58.86
2023-03-22T08:20:09.325Z,58.45
2023-03-22T08:22:36.519Z,58.93
2023-03-22T08:25:04.115Z,58.88
2023-03-22T08:27:31.384Z,58.57
2023-03-22T08:29:58.649Z,58.30
2023-03-22T08:32:25.174Z,57.90
2023-03-22T08:34:52.577Z,57.19
2023-03-22T08:37:20.314Z,56.83
2023-03-22T08:39:47.267Z,56.39
2023-03-22T08:42:13.715Z,56.29
2023-03-22T08:44:40.089Z,55.75
2023-03-22T08:47:07.340Z,55.01
2023-03-22T08:49:33.877Z,54.51
2023-03-22T08:52:00.385Z,53.80
2023-03-22T08:54:35.499Z,53.97
2023-03-22T08:57:03.353Z,53.41
2023-03-22T08:59:29.723Z,53.43
2023-03-22T09:01:56.299Z,53.60
2023-03-22T09:04:23.220Z,53.46
2023-03-22T09:06:49.568Z,53.88
2023-03-22T09:09:16.046Z,53.83
2023-03-22T09:11:42.760Z,53.83
2023-03-22T09:14:09.701Z,53.86
2023-03-22T09:16:36.575Z,53.64
2023-03-22T09:19:03.513Z,53.68
2023-03-22T09:21:29.894Z,52.59
2023-03-22T09:23:56.638Z,52.85
2023-03-22T09:26:24.094Z,52.66
2023-03-22T09:28:50.855Z,52.71
2023-03-22T09:31:20.238Z,52.05
2023-03-22T09:33:46.889Z,52.05
2023-03-22T09:36:13.307Z,51.70
2023-03-22T09:38:41.212Z,51.50
2023-03-22T09:41:15.740Z,51.98
2023-03-22T09:43:47.069Z,52.07
2023-03-22T09:46:18.161Z,52.49
2023-03-22T09:48:48.413Z,52.24
2023-03-22T09:51:43.361Z,51.85
2023-03-22T09:54:17.139Z,51.82
2023-03-22T09:56:49.370Z,51.20
2023-03-22T09:59:36.014Z,51.39
2023-03-22T10:02:12.575Z,51.85
2023-03-22T10:05:06.499Z,52.10
2023-03-22T10:07:53.323Z,51.57
2023-03-22T10:10:22.824Z,49.80
2023-03-22T10:13:05.243Z,49.42
2023-03-22T10:15:37.070Z,48.80
2023-03-22T10:18:07.723Z,48.87
2023-03-22T10:20:42.599Z,49.36
2023-03-22T10:23:20.457Z,49.24
2023-03-22T10:25:50.612Z,49.71
2023-03-22T10:28:42.109Z,48.70
2023-03-22T10:31:17.503Z,48.35
2023-03-22T10:33:57.944Z,48.21
2023-03-22T10:36:30.942Z,48.26
2023-03-22T10:39:03.974Z,48.06
2023-03-22T10:41:33.606Z,47.84
2023-03-22T10:44:03.736Z,48.33
2023-03-22T10:46:39.276Z,48.06
2023-03-22T10:49:07.554Z,47.84
2023-03-22T10:51:42.330Z,48.42
2023-03-22T10:54:14.212Z,48.20
2023-03-22T10:56:40.886Z,47.75
2023-03-22T10:59:07.308Z,47.35
2023-03-22T11:01:39.887Z,47.28
2023-03-22T11:04:15.675Z,47.40
2023-03-22T11:06:52.758Z,47.39
2023-03-22T11:09:23.461Z,46.73
2023-03-22T11:11:58.571Z,46.82
2023-03-22T11:14:32.627Z,46.80
2023-03-22T11:17:14.767Z,47.12
2023-03-22T11:19:52.289Z,46.49
2023-03-22T11:22:36.345Z,46.43
2023-03-22T11:25:07.054Z,46.16
2023-03-22T11:27:34.266Z,45.82
2023-03-22T11:30:20.182Z,46.18
2023-03-22T11:33:09.439Z,46.01
2023-03-22T11:35:38.206Z,45.98
2023-03-22T11:38:05.072Z,45.80
2023-03-22T11:40:34.746Z,45.95
2023-03-22T11:43:09.993Z,46.37
2023-03-22T11:45:41.020Z,46.14
2023-03-22T11:48:21.510Z,46.16
2023-03-22T11:50:51.846Z,46.07
2023-03-22T11:53:23.237Z,46.27
2023-03-22T11:55:53.419Z,46.13
2023-03-22T11:58:41.518Z,46.21
2023-03-22T12:01:15.929Z,46.51
2023-03-22T12:03:45.986Z,45.96
2023-03-22T12:06:27.571Z,45.83
2023-03-22T12:08:59.462Z,46.22
2023-03-22T12:11:41.320Z,46.76
2023-03-22T12:14:21.699Z,47.17
2023-03-22T12:16:52.458Z,47.09
2023-03-22T12:19:44.136Z,47.38
2023-03-22T12:22:15.832Z,47.38
2023-03-22T12:24:56.346Z,47.73
2023-03-22T12:27:36.534Z,47.73
2023-03-22T12:30:25.888Z,48.04
2023-03-22T12:33:17.751Z,48.58
2023-03-22T12:35:47.100Z,48.05
2023-03-22T12:38:19.096Z,48.36
2023-03-22T12:40:46.841Z,49.05
2023-03-22T12:44:04.465Z,49.18
2023-03-22T12:46:40.105Z,49.10
2023-03-22T12:49:19.290Z,49.82
2023-03-22T12:51:47.343Z,49.44
2023-03-22T12:54:16.575Z,49.98
2023-03-22T12:56:46.450Z,50.11
2023-03-22T12:59:20.134Z,50.13
2023-03-22T13:01:53.109Z,50.44
2023-03-22T13:04:34.823Z,50.57
2023-03-22T13:07:10.376Z,50.65
2023-03-22T13:09:42.247Z,50.39
2023-03-22T13:12:17.884Z,50.72
2023-03-22T13:14:54.064Z,50.90
2023-03-22T13:17:23.271Z,50.63
2023-03-22T13:20:23.389Z,50.38
2023-03-22T13:22:49.793Z,50.75
2023-03-22T13:25:19.559Z,50.23
2023-03-22T13:27:46.043Z,50.61
2023-03-22T13:30:28.243Z,50.21
2023-03-22T13:33:04.445Z,50.05
2023-03-22T13:35:51.281Z,49.91
2023-03-22T13:38:27.378Z,49.83
2023-03-22T13:41:00.577Z,50.42
2023-03-22T13:43:30.010Z,49.09
2023-03-22T13:46:20.490Z,49.93
2023-03-22T13:48:47.202Z,49.73
2023-03-22T13:51:22.824Z,49.49
2023-03-22T13:54:01.604Z,49.33
2023-03-22T13:56:41.252Z,49.17
2023-03-22T13:59:33.918Z,49.19
2023-03-22T14:02:04.804Z,49.20
2023-03-22T14:04:50.109Z,48.61
2023-03-22T14:07:25.736Z,48.73
2023-03-22T14:10:05.501Z,48.63
2023-03-22T14:12:52.589Z,48.69
2023-03-22T14:15:23.957Z,48.78
2023-03-22T14:18:04.210Z,48.49
2023-03-22T14:20:35.482Z,48.16
